Time;durP1;ratioP1;P1;durP2;ratioP2;P2;SDS_P1;SDS_P2;PMS_P1;PMS_P2;Temp;Humidity;BMP_temperature;BMP_pressure;BME280_temperature;BME280_humidity;BME280_pressure;Samples;Min_cycle;Max_cycle;Signal;HPM_P1;HPM_P2
2023/08/12 00:02:08;;;;;;;;;;;;;;;;;;7371604;19;1881;-64
2023/08/12 00:04:36;;;;;;;;;;;;;;;;;;7370960;19;1991;-64
2023/08/12 00:07:04;;;;;;;;;;;;;;;;;;7373837;19;1701;-63
2023/08/12 00:09:32;;;;;;;;;;;;;;;;;;7370845;19;1885;-64
2023/08/12 00:12:00;;;;;;;;;;;;;;;;;;7372773;19;1458;-63
2023/08/12 00:14:29;;;;;;;;;;;;;;;;;;7369548;19;803;-64
2023/08/12 00:16:57;;;;;;;;;;;;;;;;;;7369635;19;1816;-63
2023/08/12 00:19:25;;;;;;;;;;;;;;;;;;7371049;19;2019;-64
2023/08/12 00:21:54;;;;;;;;;;;;;;;;;;7371359;19;1853;-64
2023/08/12 00:24:22;;;;;;;;;;;;;;;;;;7369342;19;819;-64
2023/08/12 00:26:50;;;;;;;;;;;;;;;;;;7370962;19;1999;-64
2023/08/12 00:29:18;;;;;;;;;;;;;;;;;;7371169;19;1721;-64
2023/08/12 00:31:46;;;;;;;;;;;;;;;;;;7366023;19;1356;-64
2023/08/12 00:34:14;;;;;;;;;;;;;;;;;;7369259;19;2093;-64
2023/08/12 00:36:42;;;;;;;;;;;;;;;;;;7370607;19;1899;-64
2023/08/12 00:39:10;;;;;;;;;;;;;;;;;;7372547;19;1472;-64
2023/08/12 00:41:39;;;;;;;;;;;;;;;;;;7367452;19;1867;-62
2023/08/12 00:44:07;;;;;;;;;;;;;;;;;;7370761;19;2011;-64
2023/08/12 00:46:36;;;;;;;;;;;;;;;;;;7369939;19;1765;-64
2023/08/12 00:49:04;;;;;;;;;;;;;;;;;;7366106;19;1727;-64
2023/08/12 00:51:33;;;;;;;;;;;;;;;;;;7368118;19;1739;-64
2023/08/12 00:54:01;;;;;;;;;;;;;;;;;;7372598;19;1649;-64
2023/08/12 00:56:29;;;;;;;;;;;;;;;;;;7367606;19;853;-64
2023/08/12 00:59:00;;;;;;;;;;;;;;;;;;7366783;19;836;-64
2023/08/12 01:01:28;;;;;;;;;;;;;;;;;;7368940;19;2128;-64
2023/08/12 01:03:56;;;;;;;;;;;;;;;;;;7373109;19;1658;-63
2023/08/12 01:06:24;;;;;;;;;;;;;;;;;;7366389;19;1977;-64
2023/08/12 01:08:52;;;;;;;;;;;;;;;;;;7368014;19;2094;-64
2023/08/12 01:11:21;;;;;;;;;;;;;;;;;;7367669;19;1839;-64
2023/08/12 01:13:49;;;;;;;;;;;;;;;;;;7369347;19;1791;-64
2023/08/12 01:16:17;;;;;;;;;;;;;;;;;;7370585;19;1819;-64
2023/08/12 01:18:45;;;;;;;;;;;;;;;;;;7370676;19;1711;-63
2023/08/12 01:21:14;;;;;;;;;;;;;;;;;;7366877;19;1841;-64
2023/08/12 01:23:45;;;;;;;;;;;;;;;;;;7369429;19;1830;-64
2023/08/12 01:26:13;;;;;;;;;;;;;;;;;;7370936;19;1523;-64
2023/08/12 01:28:41;;;;;;;;;;;;;;;;;;7366252;19;826;-63
2023/08/12 01:31:10;;;;;;;;;;;;;;;;;;7368433;19;1660;-63
2023/08/12 01:33:38;;;;;;;;;;;;;;;;;;7368283;19;2044;-63
2023/08/12 01:36:06;;;;;;;;;;;;;;;;;;7371526;19;2100;-62
2023/08/12 01:38:34;;;;;;;;;;;;;;;;;;7370484;19;1429;-61
2023/08/12 01:41:02;;;;;;;;;;;;;;;;;;7368974;19;1845;-63
2023/08/12 01:43:31;;;;;;;;;;;;;;;;;;7370283;19;1642;-62
2023/08/12 01:45:59;;;;;;;;;;;;;;;;;;7366101;19;815;-63
2023/08/12 01:48:27;;;;;;;;;;;;;;;;;;7366615;19;1667;-60
2023/08/12 01:50:55;;;;;;;;;;;;;;;;;;7368891;19;1917;-62
2023/08/12 01:53:24;;;;;;;;;;;;;;;;;;7369037;19;1455;-62
2023/08/12 01:55:52;;;;;;;;;;;;;;;;;;7367979;19;870;-62
2023/08/12 01:58:20;;;;;;;;;;;;;;;;;;7365853;19;1700;-63
2023/08/12 02:00:48;;;;;;;;;;;;;;;;;;7367866;19;1888;-63
2023/08/12 02:03:17;;;;;;;;;;;;;;;;;;7368005;19;1884;-63
2023/08/12 02:05:45;;;;;;;;;;;;;;;;;;7369973;19;1917;-63
2023/08/12 02:08:13;;;;;;;;;;;;;;;;;;7368388;19;1756;-62
2023/08/12 02:10:42;;;;;;;;;;;;;;;;;;7368849;19;1695;-63
2023/08/12 02:13:10;;;;;;;;;;;;;;;;;;7366064;19;1883;-63
2023/08/12 02:15:38;;;;;;;;;;;;;;;;;;7370002;19;1828;-62
2023/08/12 02:18:06;;;;;;;;;;;;;;;;;;7364296;19;783;-64
2023/08/12 02:20:36;;;;;;;;;;;;;;;;;;7367931;19;2088;-63
2023/08/12 02:23:04;;;;;;;;;;;;;;;;;;7364647;19;1861;-62
2023/08/12 02:25:32;;;;;;;;;;;;;;;;;;7369132;19;1647;-63
2023/08/12 02:28:01;;;;;;;;;;;;;;;;;;7364113;19;850;-64
2023/08/12 02:30:30;;;;;;;;;;;;;;;;;;7365927;19;837;-63
2023/08/12 02:32:58;;;;;;;;;;;;;;;;;;7365642;19;1703;-63
2023/08/12 02:35:26;;;;;;;;;;;;;;;;;;7368725;19;1765;-64
2023/08/12 02:37:54;;;;;;;;;;;;;;;;;;7364425;19;831;-64
2023/08/12 02:40:22;;;;;;;;;;;;;;;;;;7365242;19;1763;-64
2023/08/12 02:42:50;;;;;;;;;;;;;;;;;;7366739;19;2145;-64
2023/08/12 02:45:20;;;;;;;;;;;;;;;;;;7365889;19;1891;-64
2023/08/12 02:47:48;;;;;;;;;;;;;;;;;;7369195;19;1466;-64
2023/08/12 02:50:16;;;;;;;;;;;;;;;;;;7364700;19;2135;-64
2023/08/12 02:52:45;;;;;;;;;;;;;;;;;;7364715;19;1903;-63
2023/08/12 02:55:13;;;;;;;;;;;;;;;;;;7369357;19;1184;-64
2023/08/12 02:57:41;;;;;;;;;;;;;;;;;;7363801;19;854;-63
2023/08/12 03:00:07;;;;;;;;;;;;;;;;;;7364629;19;2133;-63
2023/08/12 03:02:35;;;;;;;;;;;;;;;;;;7363470;19;1849;-63
2023/08/12 03:05:04;;;;;;;;;;;;;;;;;;7368912;19;1656;-65
2023/08/12 03:07:32;;;;;;;;;;;;;;;;;;7365425;19;1772;-64
2023/08/12 03:10:00;;;;;;;;;;;;;;;;;;7366429;19;1484;-64
2023/08/12 03:12:28;;;;;;;;;;;;;;;;;;7362518;19;1282;-64
2023/08/12 03:14:56;;;;;;;;;;;;;;;;;;7365291;19;1806;-63
2023/08/12 03:17:24;;;;;;;;;;;;;;;;;;7373003;19;1778;-64
2023/08/12 03:19:54;;;;;;;;;;;;;;;;;;7368293;19;847;-63
2023/08/12 03:22:22;;;;;;;;;;;;;;;;;;7367500;19;1845;-64
2023/08/12 03:24:50;;;;;;;;;;;;;;;;;;7373022;19;1511;-64
2023/08/12 03:27:19;;;;;;;;;;;;;;;;;;7369099;19;811;-63
2023/08/12 03:29:47;;;;;;;;;;;;;;;;;;7368312;19;1513;-64
2023/08/12 03:32:15;;;;;;;;;;;;;;;;;;7371557;19;1855;-64
2023/08/12 03:34:44;;;;;;;;;;;;;;;;;;7371707;19;1876;-64
2023/08/12 03:37:13;;;;;;;;;;;;;;;;;;7371098;19;1731;-63
2023/08/12 03:39:42;;;;;;;;;;;;;;;;;;7371738;19;1488;-63
2023/08/12 03:42:10;;;;;;;;;;;;;;;;;;7369914;19;1868;-64
2023/08/12 03:44:39;;;;;;;;;;;;;;;;;;7373910;19;1405;-64
2023/08/12 03:47:07;;;;;;;;;;;;;;;;;;7373078;19;1442;-63
2023/08/12 03:49:38;;;;;;;;;;;;;;;;;;7367242;19;1969;-64
2023/08/12 03:52:07;;;;;;;;;;;;;;;;;;7367991;19;2013;-64
2023/08/12 03:54:35;;;;;;;;;;;;;;;;;;7374150;19;1546;-65
2023/08/12 03:57:03;;;;;;;;;;;;;;;;;;7369128;19;774;-64
2023/08/12 03:59:32;;;;;;;;;;;;;;;;;;7367008;19;2144;-65
2023/08/12 04:02:01;;;;;;;;;;;;;;;;;;7371829;19;1844;-65
2023/08/12 04:04:29;;;;;;;;;;;;;;;;;;7368231;19;853;-65
2023/08/12 04:06:57;;;;;;;;;;;;;;;;;;7370251;19;1899;-64
2023/08/12 04:09:25;;;;;;;;;;;;;;;;;;7371967;19;1569;-64
2023/08/12 04:11:53;;;;;;;;;;;;;;;;;;7367609;19;1277;-64
2023/08/12 04:14:21;;;;;;;;;;;;;;;;;;7368840;19;1498;-65
2023/08/12 04:16:49;;;;;;;;;;;;;;;;;;7373339;19;1680;-64
2023/08/12 04:19:19;;;;;;;;;;;;;;;;;;7366779;19;816;-64
2023/08/12 04:21:48;;;;;;;;;;;;;;;;;;7366537;19;1847;-65
2023/08/12 04:24:16;;;;;;;;;;;;;;;;;;7368252;19;801;-65
2023/08/12 04:26:44;;;;;;;;;;;;;;;;;;7367605;19;767;-65
2023/08/12 04:29:12;;;;;;;;;;;;;;;;;;7366895;19;1265;-63
2023/08/12 04:31:43;;;;;;;;;;;;;;;;;;7371516;19;1666;-64
2023/08/12 04:34:11;;;;;;;;;;;;;;;;;;7370927;19;1913;-63
2023/08/12 04:36:39;;;;;;;;;;;;;;;;;;7372700;19;1579;-64
2023/08/12 04:39:07;;;;;;;;;;;;;;;;;;7371906;19;1287;-64
2023/08/12 04:41:35;;;;;;;;;;;;;;;;;;7368492;19;1851;-64
2023/08/12 04:44:05;;;;;;;;;;;;;;;;;;7371164;19;1679;-65
2023/08/12 04:46:34;;;;;;;;;;;;;;;;;;7371322;19;1730;-64
2023/08/12 04:49:02;;;;;;;;;;;;;;;;;;7366734;19;1883;-63
2023/08/12 04:51:30;;;;;;;;;;;;;;;;;;7371568;19;1817;-64
2023/08/12 04:54:00;;;;;;;;;;;;;;;;;;7370840;19;1753;-64
2023/08/12 04:56:29;;;;;;;;;;;;;;;;;;7371698;19;1462;-65
2023/08/12 04:58:57;;;;;;;;;;;;;;;;;;7367358;19;886;-64
2023/08/12 05:01:25;;;;;;;;;;;;;;;;;;7369485;19;1822;-63
2023/08/12 05:03:54;;;;;;;;;;;;;;;;;;7364648;19;1857;-63
2023/08/12 05:06:22;;;;;;;;;;;;;;;;;;7369954;19;1798;-63
2023/08/12 05:08:51;;;;;;;;;;;;;;;;;;7368342;19;850;-64
2023/08/12 05:11:19;;;;;;;;;;;;;;;;;;7365422;19;1365;-63
2023/08/12 05:13:47;;;;;;;;;;;;;;;;;;7367835;19;1775;-63
2023/08/12 05:16:15;;;;;;;;;;;;;;;;;;7370441;19;1245;-63
2023/08/12 05:18:43;;;;;;;;;;;;;;;;;;7366649;19;854;-63
2023/08/12 05:21:12;;;;;;;;;;;;;;;;;;7367015;19;1912;-62
2023/08/12 05:23:40;;;;;;;;;;;;;;;;;;7369338;19;1857;-62
2023/08/12 05:26:08;;;;;;;;;;;;;;;;;;7366926;19;796;-62
2023/08/12 05:28:36;;;;;;;;;;;;;;;;;;7367159;19;811;-62
2023/08/12 05:31:04;;;;;;;;;;;;;;;;;;7369510;19;1693;-63
2023/08/12 05:33:33;;;;;;;;;;;;;;;;;;7371430;19;1505;-63
2023/08/12 05:36:01;;;;;;;;;;;;;;;;;;7370128;19;1949;-63
2023/08/12 05:38:29;;;;;;;;;;;;;;;;;;7368294;19;1674;-63
2023/08/12 05:40:57;;;;;;;;;;;;;;;;;;7366600;19;1989;-63
2023/08/12 05:43:25;;;;;;;;;;;;;;;;;;7369019;19;1849;-63
2023/08/12 05:45:53;;;;;;;;;;;;;;;;;;7367211;19;842;-64
2023/08/12 05:48:21;;;;;;;;;;;;;;;;;;7367306;19;1877;-64
2023/08/12 05:50:49;;;;;;;;;;;;;;;;;;7370059;19;1752;-65
2023/08/12 05:53:18;;;;;;;;;;;;;;;;;;7367700;19;1985;-65
2023/08/12 05:55:46;;;;;;;;;;;;;;;;;;7370411;19;1711;-65
2023/08/12 05:58:14;;;;;;;;;;;;;;;;;;7368242;19;1904;-64
2023/08/12 06:00:45;;;;;;;;;;;;;;;;;;7369133;19;1794;-64
2023/08/12 06:03:13;;;;;;;;;;;;;;;;;;7368218;19;1928;-64
2023/08/12 06:05:41;;;;;;;;;;;;;;;;;;7370386;19;1659;-66
2023/08/12 06:08:09;;;;;;;;;;;;;;;;;;7366420;19;821;-67
2023/08/12 06:10:37;;;;;;;;;;;;;;;;;;7367615;19;911;-67
2023/08/12 06:13:05;;;;;;;;;;;;;;;;;;7366385;19;1845;-68
2023/08/12 06:15:34;;;;;;;;;;;;;;;;;;7369692;19;1758;-67
2023/08/12 06:18:02;;;;;;;;;;;;;;;;;;7370899;19;1464;-68
2023/08/12 06:20:30;;;;;;;;;;;;;;;;;;7367684;19;965;-68
2023/08/12 06:22:58;;;;;;;;;;;;;;;;;;7364209;19;2125;-68
2023/08/12 06:25:26;;;;;;;;;;;;;;;;;;7369499;19;1734;-67
2023/08/12 06:27:54;;;;;;;;;;;;;;;;;;7370472;19;2288;-68
2023/08/12 06:30:22;;;;;;;;;;;;;;;;;;7368103;19;1724;-67
2023/08/12 06:32:51;;;;;;;;;;;;;;;;;;7367664;19;1971;-67
2023/08/12 06:35:19;;;;;;;;;;;;;;;;;;7368311;19;2086;-67
2023/08/12 06:37:47;;;;;;;;;;;;;;;;;;7368676;19;1782;-66
2023/08/12 06:40:15;;;;;;;;;;;;;;;;;;7368563;19;1688;-66
2023/08/12 06:42:43;;;;;;;;;;;;;;;;;;7364347;19;2027;-66
2023/08/12 06:45:11;;;;;;;;;;;;;;;;;;7368039;19;1819;-66
2023/08/12 06:47:39;;;;;;;;;;;;;;;;;;7368665;19;1740;-66
2023/08/12 06:50:08;;;;;;;;;;;;;;;;;;7368521;19;1836;-66
2023/08/12 06:52:36;;;;;;;;;;;;;;;;;;7373078;19;1670;-67
2023/08/12 06:55:04;;;;;;;;;;;;;;;;;;7373912;19;1815;-67
2023/08/12 06:57:32;;;;;;;;;;;;;;;;;;7372056;19;832;-66
2023/08/12 07:00:00;;;;;;;;;;;;;;;;;;7371098;19;803;-66
2023/08/12 07:02:28;;;;;;;;;;;;;;;;;;7371960;19;1920;-66
2023/08/12 07:04:56;;;;;;;;;;;;;;;;;;7374039;19;1921;-67
2023/08/12 07:07:25;;;;;;;;;;;;;;;;;;7371285;19;1761;-68
2023/08/12 07:09:53;;;;;;;;;;;;;;;;;;7372437;19;1755;-67
2023/08/12 07:12:21;;;;;;;;;;;;;;;;;;7372254;19;1735;-67
2023/08/12 07:14:49;;;;;;;;;;;;;;;;;;7372471;19;1626;-66
2023/08/12 07:17:17;;;;;;;;;;;;;;;;;;7369847;19;810;-67
2023/08/12 07:19:45;;;;;;;;;;;;;;;;;;7366689;19;791;-67
2023/08/12 07:22:13;;;;;;;;;;;;;;;;;;7370062;19;1292;-66
2023/08/12 07:24:41;;;;;;;;;;;;;;;;;;7369035;19;1857;-67
2023/08/12 07:27:10;;;;;;;;;;;;;;;;;;7371838;19;851;-66
2023/08/12 07:29:38;;;;;;;;;;;;;;;;;;7370782;19;872;-67
2023/08/12 07:32:06;;;;;;;;;;;;;;;;;;7369947;19;1340;-67
2023/08/12 07:34:34;;;;;;;;;;;;;;;;;;7371054;19;866;-67
2023/08/12 07:37:02;;;;;;;;;;;;;;;;;;7371754;19;859;-67
2023/08/12 07:39:30;;;;;;;;;;;;;;;;;;7369287;19;1774;-67
2023/08/12 07:41:58;;;;;;;;;;;;;;;;;;7370434;19;1756;-69
2023/08/12 07:44:27;;;;;;;;;;;;;;;;;;7372071;19;1849;-70
2023/08/12 07:46:55;;;;;;;;;;;;;;;;;;7370478;19;819;-70
2023/08/12 07:49:23;;;;;;;;;;;;;;;;;;7369936;19;1919;-68
2023/08/12 07:51:51;;;;;;;;;;;;;;;;;;7372172;19;1790;-68
2023/08/12 07:54:19;;;;;;;;;;;;;;;;;;7372759;19;1477;-69
2023/08/12 07:56:47;;;;;;;;;;;;;;;;;;7371128;19;2030;-68
2023/08/12 07:59:16;;;;;;;;;;;;;;;;;;7371335;19;1708;-69
2023/08/12 08:01:44;;;;;;;;;;;;;;;;;;7370997;19;1577;-68
2023/08/12 08:04:12;;;;;;;;;;;;;;;;;;7371952;19;1853;-68
2023/08/12 08:06:40;;;;;;;;;;;;;;;;;;7373112;19;1708;-68
2023/08/12 08:09:08;;;;;;;;;;;;;;;;;;7368269;19;791;-68
2023/08/12 08:11:36;;;;;;;;;;;;;;;;;;7369451;19;1725;-68
2023/08/12 08:14:04;;;;;;;;;;;;;;;;;;7373888;19;1633;-68
2023/08/12 08:16:32;;;;;;;;;;;;;;;;;;7370707;19;2104;-69
2023/08/12 08:19:01;;;;;;;;;;;;;;;;;;7371945;19;1785;-67
2023/08/12 08:21:29;;;;;;;;;;;;;;;;;;7370438;19;2051;-67
2023/08/12 08:23:57;;;;;;;;;;;;;;;;;;7371691;19;1853;-67
2023/08/12 08:26:26;;;;;;;;;;;;;;;;;;7371711;19;1777;-67
2023/08/12 08:28:54;;;;;;;;;;;;;;;;;;7371870;19;1634;-68
2023/08/12 08:31:23;;;;;;;;;;;;;;;;;;7371656;19;1619;-68
2023/08/12 08:33:51;;;;;;;;;;;;;;;;;;7371485;19;1977;-68
2023/08/12 08:36:19;;;;;;;;;;;;;;;;;;7370275;19;1705;-68
2023/08/12 08:38:47;;;;;;;;;;;;;;;;;;7372028;19;1476;-68
2023/08/12 08:41:15;;;;;;;;;;;;;;;;;;7371298;19;1609;-67
2023/08/12 08:43:44;;;;;;;;;;;;;;;;;;7369542;19;1841;-68
2023/08/12 08:46:12;;;;;;;;;;;;;;;;;;7370711;19;1823;-67
2023/08/12 08:48:40;;;;;;;;;;;;;;;;;;7370119;19;1715;-69
2023/08/12 08:51:08;;;;;;;;;;;;;;;;;;7371841;19;1486;-67
2023/08/12 08:53:36;;;;;;;;;;;;;;;;;;7368720;19;859;-68
2023/08/12 08:56:05;;;;;;;;;;;;;;;;;;7369938;19;1700;-67
2023/08/12 08:58:33;;;;;;;;;;;;;;;;;;7371696;19;2165;-68
2023/08/12 09:01:01;;;;;;;;;;;;;;;;;;7371807;19;2220;-67
2023/08/12 09:03:29;;;;;;;;;;;;;;;;;;7371043;19;1960;-66
2023/08/12 09:05:58;;;;;;;;;;;;;;;;;;7371391;19;1692;-67
2023/08/12 09:08:26;;;;;;;;;;;;;;;;;;7369531;19;2017;-67
2023/08/12 09:10:51;;;;;;;;;;;;;;;;;;7371341;19;1699;-67
2023/08/12 09:13:20;;;;;;;;;;;;;;;;;;7366355;19;786;-67
2023/08/12 09:15:48;;;;;;;;;;;;;;;;;;7368569;19;799;-68
2023/08/12 09:18:16;;;;;;;;;;;;;;;;;;7369305;19;1384;-67
2023/08/12 09:20:45;;;;;;;;;;;;;;;;;;7370338;19;1846;-66
2023/08/12 09:23:13;;;;;;;;;;;;;;;;;;7368807;19;1849;-66
2023/08/12 09:25:42;;;;;;;;;;;;;;;;;;7372094;19;1725;-67
2023/08/12 09:28:10;;;;;;;;;;;;;;;;;;7369043;19;2106;-65
2023/08/12 09:30:38;;;;;;;;;;;;;;;;;;7371426;19;1381;-66
2023/08/12 09:33:07;;;;;;;;;;;;;;;;;;7366577;19;2107;-66
2023/08/12 09:35:35;;;;;;;;;;;;;;;;;;7371059;19;1583;-67
2023/08/12 09:38:03;;;;;;;;;;;;;;;;;;7372061;19;1298;-65
2023/08/12 09:40:31;;;;;;;;;;;;;;;;;;7369654;19;1964;-65
2023/08/12 09:43:00;;;;;;;;;;;;;;;;;;7367860;19;1711;-66
2023/08/12 09:45:28;;;;;;;;;;;;;;;;;;7366469;19;1854;-65
2023/08/12 09:47:56;;;;;;;;;;;;;;;;;;7371657;19;1693;-66
2023/08/12 09:50:25;;;;;;;;;;;;;;;;;;7367099;19;837;-66
2023/08/12 09:52:53;;;;;;;;;;;;;;;;;;7364986;19;1267;-65
2023/08/12 09:55:21;;;;;;;;;;;;;;;;;;7368045;19;803;-66
2023/08/12 09:57:49;;;;;;;;;;;;;;;;;;7367340;19;831;-66
2023/08/12 10:00:19;;;;;;;;;;;;;;;;;;7368163;19;1653;-66
2023/08/12 10:02:47;;;;;;;;;;;;;;;;;;7368754;19;1489;-65
2023/08/12 10:05:15;;;;;;;;;;;;;;;;;;7365888;19;1904;-64
2023/08/12 10:07:43;;;;;;;;;;;;;;;;;;7368890;19;1983;-66
2023/08/12 10:10:12;;;;;;;;;;;;;;;;;;7365707;19;1686;-65
2023/08/12 10:12:40;;;;;;;;;;;;;;;;;;7364093;19;1399;-65
2023/08/12 10:15:09;;;;;;;;;;;;;;;;;;7366887;19;788;-64
2023/08/12 10:17:37;;;;;;;;;;;;;;;;;;7367403;19;815;-64
2023/08/12 10:20:06;;;;;;;;;;;;;;;;;;7366839;19;815;-65
2023/08/12 10:22:34;;;;;;;;;;;;;;;;;;7365064;19;1303;-63
2023/08/12 10:25:02;;;;;;;;;;;;;;;;;;7362979;19;1868;-64
2023/08/12 10:27:30;;;;;;;;;;;;;;;;;;7367203;19;799;-64
2023/08/12 10:29:58;;;;;;;;;;;;;;;;;;7365461;19;1886;-65
2023/08/12 10:32:26;;;;;;;;;;;;;;;;;;7364108;19;2000;-65
2023/08/12 10:34:55;;;;;;;;;;;;;;;;;;7371123;19;1808;-65
2023/08/12 10:37:23;;;;;;;;;;;;;;;;;;7366069;19;1795;-66
2023/08/12 10:39:51;;;;;;;;;;;;;;;;;;7368812;19;1856;-64
2023/08/12 10:42:19;;;;;;;;;;;;;;;;;;7367624;19;1449;-65
2023/08/12 10:44:47;;;;;;;;;;;;;;;;;;7364317;19;1841;-65
2023/08/12 10:47:15;;;;;;;;;;;;;;;;;;7366795;19;794;-64
2023/08/12 10:49:44;;;;;;;;;;;;;;;;;;7365692;19;791;-64
2023/08/12 10:52:12;;;;;;;;;;;;;;;;;;7364496;19;1290;-65
2023/08/12 10:54:40;;;;;;;;;;;;;;;;;;7365886;19;851;-64
2023/08/12 10:57:05;;;;;;;;;;;;;;;;;;7365454;19;858;-64
2023/08/12 10:59:33;;;;;;;;;;;;;;;;;;7364277;19;1694;-64
2023/08/12 11:02:02;;;;;;;;;;;;;;;;;;7365830;19;1978;-64
2023/08/12 11:04:30;;;;;;;;;;;;;;;;;;7366781;19;1849;-65
2023/08/12 11:07:00;;;;;;;;;;;;;;;;;;7369583;19;1733;-64
2023/08/12 11:09:28;;;;;;;;;;;;;;;;;;7369188;19;1991;-63
2023/08/12 11:11:56;;;;;;;;;;;;;;;;;;7369657;19;2105;-64
2023/08/12 11:14:24;;;;;;;;;;;;;;;;;;7369964;19;1216;-64
2023/08/12 11:16:52;;;;;;;;;;;;;;;;;;7366442;19;717;-64
2023/08/12 11:19:20;;;;;;;;;;;;;;;;;;7367933;19;1970;-63
2023/08/12 11:21:49;;;;;;;;;;;;;;;;;;7369216;19;1847;-64
2023/08/12 11:24:17;;;;;;;;;;;;;;;;;;7367091;19;1875;-65
2023/08/12 11:26:45;;;;;;;;;;;;;;;;;;7365117;19;1908;-65
2023/08/12 11:29:14;;;;;;;;;;;;;;;;;;7369590;19;1504;-64
2023/08/12 11:31:42;;;;;;;;;;;;;;;;;;7363904;19;1274;-65
2023/08/12 11:34:10;;;;;;;;;;;;;;;;;;7366570;19;2012;-64
2023/08/12 11:36:38;;;;;;;;;;;;;;;;;;7371250;19;1473;-64
2023/08/12 11:39:06;;;;;;;;;;;;;;;;;;7370228;19;870;-64
2023/08/12 11:41:35;;;;;;;;;;;;;;;;;;7372596;19;1976;-64
2023/08/12 11:44:04;;;;;;;;;;;;;;;;;;7373784;19;1857;-65
2023/08/12 11:46:32;;;;;;;;;;;;;;;;;;7370831;19;2044;-65
2023/08/12 11:49:00;;;;;;;;;;;;;;;;;;7374122;19;1552;-64
2023/08/12 11:51:28;;;;;;;;;;;;;;;;;;7369483;19;1473;-65
2023/08/12 11:53:57;;;;;;;;;;;;;;;;;;7372768;19;1573;-65
2023/08/12 11:56:25;;;;;;;;;;;;;;;;;;7373833;19;1675;-64
2023/08/12 11:58:54;;;;;;;;;;;;;;;;;;7368730;19;742;-65
2023/08/12 12:01:22;;;;;;;;;;;;;;;;;;7372399;19;1574;-65
2023/08/12 12:03:50;;;;;;;;;;;;;;;;;;7373470;19;1853;-64
2023/08/12 12:06:18;;;;;;;;;;;;;;;;;;7371103;19;1791;-64
2023/08/12 12:08:46;;;;;;;;;;;;;;;;;;7374123;19;1435;-64
2023/08/12 12:11:15;;;;;;;;;;;;;;;;;;7369734;19;1301;-64
2023/08/12 12:13:44;;;;;;;;;;;;;;;;;;7370500;19;864;-64
2023/08/12 12:16:12;;;;;;;;;;;;;;;;;;7374332;19;1941;-65
2023/08/12 12:18:40;;;;;;;;;;;;;;;;;;7373047;19;1795;-65
2023/08/12 12:21:09;;;;;;;;;;;;;;;;;;7369236;19;1828;-65
2023/08/12 12:23:37;;;;;;;;;;;;;;;;;;7373908;19;1930;-65
2023/08/12 12:26:05;;;;;;;;;;;;;;;;;;7369873;19;1870;-64
2023/08/12 12:28:33;;;;;;;;;;;;;;;;;;7371570;19;1674;-65
2023/08/12 12:31:01;;;;;;;;;;;;;;;;;;7371092;19;1655;-62
2023/08/12 12:33:30;;;;;;;;;;;;;;;;;;7371106;19;2004;-65
2023/08/12 12:35:58;;;;;;;;;;;;;;;;;;7373250;19;1678;-64
2023/08/12 12:38:26;;;;;;;;;;;;;;;;;;7371072;19;1561;-64
2023/08/12 12:40:54;;;;;;;;;;;;;;;;;;7369038;19;1291;-65
2023/08/12 12:43:22;;;;;;;;;;;;;;;;;;7369336;19;839;-64
2023/08/12 12:45:50;;;;;;;;;;;;;;;;;;7367079;19;1852;-63
2023/08/12 12:48:18;;;;;;;;;;;;;;;;;;7371514;19;1320;-63
2023/08/12 12:50:47;;;;;;;;;;;;;;;;;;7370058;19;1609;-64
2023/08/12 12:53:15;;;;;;;;;;;;;;;;;;7369406;19;1383;-64
2023/08/12 12:55:44;;;;;;;;;;;;;;;;;;7368888;19;786;-63
2023/08/12 12:58:12;;;;;;;;;;;;;;;;;;7368228;19;936;-64
2023/08/12 13:00:40;;;;;;;;;;;;;;;;;;7369659;19;849;-64
2023/08/12 13:03:08;;;;;;;;;;;;;;;;;;7366108;19;1271;-64
2023/08/12 13:05:36;;;;;;;;;;;;;;;;;;7366928;19;1853;-64
2023/08/12 13:08:04;;;;;;;;;;;;;;;;;;7367949;19;796;-64
2023/08/12 13:10:33;;;;;;;;;;;;;;;;;;7371023;19;1001;-64
2023/08/12 13:13:01;;;;;;;;;;;;;;;;;;7365644;19;1349;-64
2023/08/12 13:15:29;;;;;;;;;;;;;;;;;;7368565;19;894;-65
2023/08/12 13:18:00;;;;;;;;;;;;;;;;;;7366048;19;1062;-64
2023/08/12 13:20:28;;;;;;;;;;;;;;;;;;7368200;19;799;-64
2023/08/12 13:22:56;;;;;;;;;;;;;;;;;;7366398;19;1274;-64
2023/08/12 13:25:24;;;;;;;;;;;;;;;;;;7366788;19;1849;-64
2023/08/12 13:27:52;;;;;;;;;;;;;;;;;;7372778;19;839;-64
2023/08/12 13:30:20;;;;;;;;;;;;;;;;;;7366897;19;818;-64
2023/08/12 13:32:48;;;;;;;;;;;;;;;;;;7365948;19;1324;-64
2023/08/12 13:35:17;;;;;;;;;;;;;;;;;;7368078;19;774;-63
2023/08/12 13:37:45;;;;;;;;;;;;;;;;;;7368239;19;802;-64
2023/08/12 13:40:15;;;;;;;;;;;;;;;;;;7369624;19;1781;-64
2023/08/12 13:42:43;;;;;;;;;;;;;;;;;;7368512;19;1702;-65
2023/08/12 13:45:11;;;;;;;;;;;;;;;;;;7372043;19;1845;-64
2023/08/12 13:47:39;;;;;;;;;;;;;;;;;;7368766;19;1967;-64
2023/08/12 13:50:07;;;;;;;;;;;;;;;;;;7370571;19;2051;-64
2023/08/12 13:52:35;;;;;;;;;;;;;;;;;;7369721;19;1882;-64
2023/08/12 13:55:03;;;;;;;;;;;;;;;;;;7370982;19;1618;-64
2023/08/12 13:57:31;;;;;;;;;;;;;;;;;;7369947;19;1893;-65
2023/08/12 14:00:00;;;;;;;;;;;;;;;;;;7369044;19;1639;-65
2023/08/12 14:02:28;;;;;;;;;;;;;;;;;;7367646;19;2067;-64
2023/08/12 14:04:56;;;;;;;;;;;;;;;;;;7368228;19;1892;-65
2023/08/12 14:07:24;;;;;;;;;;;;;;;;;;7368987;19;1704;-65
2023/08/12 14:09:52;;;;;;;;;;;;;;;;;;7366120;19;827;-64
2023/08/12 14:12:20;;;;;;;;;;;;;;;;;;7365308;19;1314;-65
2023/08/12 14:14:48;;;;;;;;;;;;;;;;;;7367252;19;796;-65
2023/08/12 14:17:18;;;;;;;;;;;;;;;;;;7367260;19;1881;-65
2023/08/12 14:19:46;;;;;;;;;;;;;;;;;;7369117;19;1956;-65
2023/08/12 14:22:14;;;;;;;;;;;;;;;;;;7368466;19;1789;-65
2023/08/12 14:24:43;;;;;;;;;;;;;;;;;;7367302;19;2010;-65
2023/08/12 14:27:12;;;;;;;;;;;;;;;;;;7369919;19;1729;-65
2023/08/12 14:29:40;;;;;;;;;;;;;;;;;;7369745;19;1701;-64
2023/08/12 14:32:08;;;;;;;;;;;;;;;;;;7367794;19;2048;-65
2023/08/12 14:34:36;;;;;;;;;;;;;;;;;;7367572;19;1750;-65
2023/08/12 14:37:06;;;;;;;;;;;;;;;;;;7368955;19;1848;-65
2023/08/12 14:39:35;;;;;;;;;;;;;;;;;;7364930;19;810;-65
2023/08/12 14:42:04;;;;;;;;;;;;;;;;;;7363879;19;1285;-65
2023/08/12 14:44:32;;;;;;;;;;;;;;;;;;7366740;19;852;-64
2023/08/12 14:47:00;;;;;;;;;;;;;;;;;;7366121;19;882;-65
2023/08/12 14:49:28;;;;;;;;;;;;;;;;;;7364296;19;823;-65
2023/08/12 14:51:56;;;;;;;;;;;;;;;;;;7364807;19;1277;-65
2023/08/12 14:54:24;;;;;;;;;;;;;;;;;;7366599;19;843;-65
2023/08/12 14:56:52;;;;;;;;;;;;;;;;;;7366417;19;820;-65
2023/08/12 14:59:21;;;;;;;;;;;;;;;;;;7365703;19;862;-65
2023/08/12 15:01:49;;;;;;;;;;;;;;;;;;7363790;19;1826;-65
2023/08/12 15:04:17;;;;;;;;;;;;;;;;;;7363583;19;2019;-64
2023/08/12 15:06:45;;;;;;;;;;;;;;;;;;7365507;19;1846;-64
2023/08/12 15:09:13;;;;;;;;;;;;;;;;;;7368395;19;1700;-65
2023/08/12 15:11:39;;;;;;;;;;;;;;;;;;7371663;19;1374;-65
2023/08/12 15:14:07;;;;;;;;;;;;;;;;;;7370717;19;758;-65
2023/08/12 15:16:36;;;;;;;;;;;;;;;;;;7371418;19;1709;-65
2023/08/12 15:19:04;;;;;;;;;;;;;;;;;;7375907;19;1432;-65
2023/08/12 15:21:32;;;;;;;;;;;;;;;;;;7372929;19;1905;-65
2023/08/12 15:24:00;;;;;;;;;;;;;;;;;;7375977;19;1062;-65
2023/08/12 15:26:28;;;;;;;;;;;;;;;;;;7370045;19;1849;-64
2023/08/12 15:28:57;;;;;;;;;;;;;;;;;;7370922;19;2076;-63
2023/08/12 15:31:25;;;;;;;;;;;;;;;;;;7374584;19;1494;-65
2023/08/12 15:33:53;;;;;;;;;;;;;;;;;;7371995;19;2011;-65
2023/08/12 15:36:21;;;;;;;;;;;;;;;;;;7374341;19;2136;-65
2023/08/12 15:38:50;;;;;;;;;;;;;;;;;;7373557;19;1936;-65
2023/08/12 15:41:18;;;;;;;;;;;;;;;;;;7374304;19;1355;-64
2023/08/12 15:43:46;;;;;;;;;;;;;;;;;;7371305;19;891;-65
2023/08/12 15:46:15;;;;;;;;;;;;;;;;;;7369939;19;1901;-64
2023/08/12 15:48:44;;;;;;;;;;;;;;;;;;7375203;19;1706;-65
2023/08/12 15:51:12;;;;;;;;;;;;;;;;;;7375045;19;1694;-64
2023/08/12 15:53:40;;;;;;;;;;;;;;;;;;7371632;19;792;-64
2023/08/12 15:56:08;;;;;;;;;;;;;;;;;;7371361;19;1753;-65
2023/08/12 15:58:36;;;;;;;;;;;;;;;;;;7373131;19;1605;-65
2023/08/12 16:01:04;;;;;;;;;;;;;;;;;;7374561;19;1686;-65
2023/08/12 16:03:32;;;;;;;;;;;;;;;;;;7370785;19;1092;-65
2023/08/12 16:06:01;;;;;;;;;;;;;;;;;;7370435;19;2004;-64
2023/08/12 16:08:29;;;;;;;;;;;;;;;;;;7372979;19;1309;-64
2023/08/12 16:10:57;;;;;;;;;;;;;;;;;;7370013;19;1289;-64
2023/08/12 16:13:25;;;;;;;;;;;;;;;;;;7373428;19;2109;-64
2023/08/12 16:15:54;;;;;;;;;;;;;;;;;;7369836;19;1915;-64
2023/08/12 16:18:22;;;;;;;;;;;;;;;;;;7372014;19;2193;-64
2023/08/12 16:20:50;;;;;;;;;;;;;;;;;;7371428;19;1885;-64
2023/08/12 16:23:18;;;;;;;;;;;;;;;;;;7370026;19;1399;-64
2023/08/12 16:25:46;;;;;;;;;;;;;;;;;;7371564;19;1857;-64
2023/08/12 16:28:14;;;;;;;;;;;;;;;;;;7372964;19;1876;-64
2023/08/12 16:30:43;;;;;;;;;;;;;;;;;;7374997;19;1725;-64
2023/08/12 16:33:11;;;;;;;;;;;;;;;;;;7369290;19;1906;-66
2023/08/12 16:35:39;;;;;;;;;;;;;;;;;;7372902;19;1873;-64
2023/08/12 16:38:08;;;;;;;;;;;;;;;;;;7373999;19;1613;-64
2023/08/12 16:40:37;;;;;;;;;;;;;;;;;;7369727;19;863;-65
2023/08/12 16:43:05;;;;;;;;;;;;;;;;;;7368652;19;2109;-64
2023/08/12 16:45:33;;;;;;;;;;;;;;;;;;7371033;19;1841;-65
2023/08/12 16:48:01;;;;;;;;;;;;;;;;;;7371938;19;1731;-65
2023/08/12 16:50:29;;;;;;;;;;;;;;;;;;7373842;19;1788;-65
2023/08/12 16:52:57;;;;;;;;;;;;;;;;;;7371244;19;1699;-65
2023/08/12 16:55:26;;;;;;;;;;;;;;;;;;7368454;19;1995;-65
2023/08/12 16:57:54;;;;;;;;;;;;;;;;;;7373182;19;1518;-64
2023/08/12 17:00:23;;;;;;;;;;;;;;;;;;7369177;19;837;-64
2023/08/12 17:02:51;;;;;;;;;;;;;;;;;;7367409;19;1342;-64
2023/08/12 17:05:19;;;;;;;;;;;;;;;;;;7371178;19;1904;-64
2023/08/12 17:07:47;;;;;;;;;;;;;;;;;;7371134;19;2012;-64
2023/08/12 17:10:16;;;;;;;;;;;;;;;;;;7373198;19;1859;-65
2023/08/12 17:12:44;;;;;;;;;;;;;;;;;;7367560;19;1287;-65